Terminal Aerodrome Forecast
Issued by NWS

Home | Current Version | Previous Version | Text Only | Print | Product List | Glossary On
Versions: 1 2 3 4 5 6 7 8 9 10 11 12 13 14 15 16 17 18 19 20 21 22 23 24 25 26 27 28 29 30 31 32 33 34 35
000
FTUS41 KBOX 190534
TAFBED
TAF
KBED 190534Z 1906/2006 00000KT P6SM BKN110
     FM190800 00000KT P6SM SCT250
     FM191300 29007KT P6SM FEW250
     FM191500 31013G24KT P6SM FEW050 FEW250
     FM191800 32015G24KT P6SM SCT050
     FM200000 34009KT P6SM SKC
     FM200300 35004KT P6SM SKC=

USA.gov is the U.S. government's official web portal to all federal, state and local government web resources and services.